AirNav  
 
 1005 users online  

3GA1 Prattsburg Airport
Talbotton, Georgia, USA

GOING TO TALBOTTON?


FAA INFORMATION EFFECTIVE 25 MARCH 2021

Location

FAA Identifier: 3GA1
Lat/Long: 32-43-42.0000N 084-21-25.0000W
32-43.700000N 084-21.416667W
32.7283333,-84.3569444
(estimated)
Elevation: 554 ft. / 168.9 m (surveyed)
Variation: 02W (1985)
From city: 10 miles E of TALBOTTON, GA
Time zone: UTC -4 (UTC -5 during Standard Time)
Zip code: 31827

Airport Operations

Airport use: Private use. Permission required prior to landing
Activation date: 03/1970
Control tower: no
ARTCC: ATLANTA CENTER
FSS: MACON FLIGHT SERVICE STATION
Attendance: UNATNDD
Wind indicator: yes
Segmented circle: no

Airport Communications

WX AWOS-3 at 6A1 (11 nm SE): 119.525 (478-862-2966)
WX AWOS-3 at OPN (14 nm N): 133.975 (706-646-4123)

Nearby radio navigation aids

VOR radial/distance  VOR name  Freq  Var
CSGr078/34.1COLUMBUS VORTAC117.1001E
MCNr273/35.9MACON VORTAC114.2001E

 
NDB name  Hdg/Dist  Freq  Var  ID
YATES220/14.333903WOP --- .--.
PINE MOUNTAIN108/26.927203WPIM .--. .. --
MONTEZUMA325/28.042604WIZS .. --.. ...
PECAT174/35.031605WFFC ..-. ..-. -.-.
LINDBERGH343/35.524204WLKG .-.. -.- --.
COWETA COUNTY154/36.423403WEQQ . --.- --.-

Airport Services

Airframe service: NONE
Powerplant service: NONE

Runway Information

Runway E/W

Dimensions: 1750 x 75 ft. / 533 x 23 m
Surface: turf
RUNWAY E  RUNWAY W
Traffic pattern: rightright

Airport Ownership and Management from official FAA records

Ownership: Privately-owned
Owner: WILLIAM A. ELLIS
ROUTE 2, BOX 117
TALBOTTON, GA 31827
Phone 404-665-8690
Manager: WILLIAM A. ELLIS
ROUTE 2, BOX 117
TALBOTTON, GA 31827
Phone 404-665-8690

Additional Remarks

CAUTION; DROP OFF EAST AND WEST ENDS.
FOR CD CTC ATLANTA APCH AT 678-364-6132, WHEN APCH CLSD CTC ATLANTA ARTCC AT 770-210-7692.

Instrument Procedures

There are no published instrument procedures at 3GA1.

Some nearby airports with instrument procedures:

6A1 - Butler Municipal Airport (11 nm SE)
KOPN - Thomaston-Upson County Airport (14 nm N)
KPIM - Harris County Airport (27 nm W)
6A2 - Griffin-Spalding County Airport (30 nm N)
53A - Dr. C P Savage Sr. Airport (31 nm SE)
 
Loc | Ops | Rwys | IFR | FBO | Links
Com | Nav | Svcs | Stats | Notes
Area around 3GA1 (Prattsburg Airport)
 
Road maps at: MapQuest Bing Google
 
Aerial photo
No photo
 
Sectional chart

 
Airport distance calculator
Flying to Prattsburg Airport? Find the distance to fly.

From to 3GA1

Sunrise and sunset
Times for 11-Apr-2021
 Local
(UTC-4)
 Zulu
(UTC)
Morning civil twilight06:4910:49
Sunrise07:1411:14
Sunset20:0300:03
Evening civil twilight20:2800:28

Current date and time
Zulu (UTC)  11-Apr-2021 23:54:30
Local (UTC-4)  11-Apr-2021 19:54:30
 
METAR
K6A1 
11nm SE 
112335Z AUTO 28005KT 10SM CLR 23/01 A2967 RMK AO2 T02340011
KOPN 
14nm N 
112335Z AUTO 30006KT 10SM CLR 22/06 A2968 RMK AO2
TAF
KCSG 
33nm SW 
111728Z 1118/1218 29010G16KT P6SM FEW040 FM120000 29005KT P6SM SKC FM120900 VRB03KT P6SM SKC FM121600 30008KT P6SM SKC
KMCN 
36nm E 
111728Z 1118/1218 27008G16KT P6SM SCT035 FM120000 27005KT P6SM SKC FM121000 00000KT P6SM SKC FM121500 29009G15KT P6SM SKC
KWRB 
40nm E 
111600Z 1116/1222 26009KT 9999 FEW010 BKN080 510053 QNH2970INS BECMG 1117/1118 27015G20KT 9999 SCT080 510053 QNH2962INS BECMG 1123/1124 VRB06KT 9999 SKC QNH2964INS BECMG 1221/1222 29012G18KT 9999 SKC QNH2984INS TX25/1120Z TN11/1212Z
NOTAMs
Click for the latest NOTAMs
NOTAMs are issued by the DoD/FAA and will open in a separate window not controlled by AirNav.

 

 
 

Would you like to see your business listed on this page?

 If your business provides an interesting product or service to pilots, flight crews, aircraft, or users of the Prattsburg Airport, you should consider listing it here.  To start the listing process, click on the button below
 
Add a business
 

Other Pages about Prattsburg Airport

Update a link
 
Copyright © AirNav, LLC. All rights reserved. Privacy Policy  Contact